BAW533 EGLL-LFPG
Flight info
| Callsign | BAW533 |
|---|---|
| Flight time | 0h 42m |
| Altitude | 18000 |
| Route | EGLL/09R MODM1J MODMI M185 MID UL612 BOGNA HARDY UM605 BIBAX BIBA9W LFPG/09L |
| Aircraft | B738/M-V/N |
Departure
| Time | 2026-05-04 21:44 |
|---|---|
| Airport | London Heathrow Airport (EGLL) |
Arrival
| Time | 2026-05-04 22:26 |
|---|---|
| Airport | Charles de Gaulle International Airport (LFPG) |
| Time | Latitude | Longitude | Altitude | Speed | Heading |
|---|---|---|---|---|---|
| 2026-05-04 21:06 | 51.46983 | -0.47712 | 81 ft | 0 kts | 90° |
| 2026-05-04 21:27 | 51.46983 | -0.47713 | 81 ft | 0 kts | 90° |
| 2026-05-04 21:27 | 51.46983 | -0.47734 | 81 ft | 2 kts | 90° |
| 2026-05-04 21:27 | 51.46983 | -0.47758 | 81 ft | 2 kts | 90° |
| 2026-05-04 21:27 | 51.46983 | -0.47782 | 81 ft | 2 kts | 90° |
| 2026-05-04 21:28 | 51.46983 | -0.47806 | 81 ft | 2 kts | 92° |
| 2026-05-04 21:28 | 51.46986 | -0.47829 | 81 ft | 2 kts | 117° |
| 2026-05-04 21:28 | 51.46995 | -0.47849 | 81 ft | 2 kts | 135° |
| 2026-05-04 21:28 | 51.47006 | -0.47863 | 81 ft | 2 kts | 153° |
| 2026-05-04 21:29 | 51.47021 | -0.47871 | 81 ft | 2 kts | 173° |
| 2026-05-04 21:29 | 51.47028 | -0.47872 | 81 ft | 1 kts | 182° |
| 2026-05-04 21:29 | 51.47031 | -0.47872 | 81 ft | 0 kts | 180° |
| 2026-05-04 21:35 | 51.47014 | -0.47871 | 81 ft | 4 kts | 178° |
| 2026-05-04 21:35 | 51.46987 | -0.47870 | 81 ft | 7 kts | 179° |
| 2026-05-04 21:35 | 51.46884 | -0.47868 | 81 ft | 12 kts | 180° |
| 2026-05-04 21:35 | 51.46794 | -0.47869 | 81 ft | 9 kts | 181° |
| 2026-05-04 21:36 | 51.46743 | -0.47933 | 81 ft | 7 kts | 263° |
| 2026-05-04 21:36 | 51.46743 | -0.47951 | 81 ft | 0 kts | 267° |
| 2026-05-04 21:38 | 51.46743 | -0.47956 | 81 ft | 3 kts | 267° |
| 2026-05-04 21:38 | 51.46740 | -0.48079 | 81 ft | 12 kts | 272° |
| 2026-05-04 21:38 | 51.46741 | -0.48174 | 81 ft | 6 kts | 269° |
| 2026-05-04 21:39 | 51.46740 | -0.48239 | 81 ft | 5 kts | 269° |
| 2026-05-04 21:39 | 51.46739 | -0.48304 | 80 ft | 7 kts | 271° |
| 2026-05-04 21:39 | 51.46741 | -0.48421 | 78 ft | 13 kts | 271° |
| 2026-05-04 21:39 | 51.46741 | -0.48589 | 78 ft | 13 kts | 269° |
| 2026-05-04 21:40 | 51.46738 | -0.48700 | 79 ft | 7 kts | 256° |
| 2026-05-04 21:40 | 51.46713 | -0.48741 | 79 ft | 3 kts | 199° |
| 2026-05-04 21:40 | 51.46705 | -0.48745 | 79 ft | 0 kts | 193° |
| 2026-05-04 21:41 | 51.46703 | -0.48745 | 79 ft | 2 kts | 191° |
| 2026-05-04 21:41 | 51.46664 | -0.48748 | 78 ft | 1 kts | 180° |
| 2026-05-04 21:41 | 51.46661 | -0.48748 | 78 ft | 0 kts | 180° |
| 2026-05-04 21:41 | 51.46656 | -0.48748 | 78 ft | 2 kts | 180° |
| 2026-05-04 21:42 | 51.46640 | -0.48750 | 78 ft | 2 kts | 188° |
| 2026-05-04 21:42 | 51.46610 | -0.48761 | 78 ft | 7 kts | 200° |
| 2026-05-04 21:42 | 51.46522 | -0.48781 | 78 ft | 13 kts | 159° |
| 2026-05-04 21:42 | 51.46478 | -0.48679 | 78 ft | 9 kts | 91° |
| 2026-05-04 21:43 | 51.46477 | -0.48612 | 78 ft | 5 kts | 91° |
| 2026-05-04 21:43 | 51.46477 | -0.48525 | 78 ft | 28 kts | 90° |
| 2026-05-04 21:43 | 51.46489 | -0.47629 | 82 ft | 127 kts | 89° |
| 2026-05-04 21:43 | 51.46481 | -0.45818 | 298 ft | 187 kts | 90° |
| 2026-05-04 21:44 | 51.46455 | -0.43699 | 1248 ft | 190 kts | 86° |
| 2026-05-04 21:44 | 51.46513 | -0.42332 | 1872 ft | 188 kts | 84° |
| 2026-05-04 21:44 | 51.46072 | -0.39557 | 2450 ft | 214 kts | 128° |
| 2026-05-04 21:44 | 51.44857 | -0.37990 | 2815 ft | 233 kts | 148° |
| 2026-05-04 21:45 | 51.43340 | -0.36841 | 3180 ft | 248 kts | 158° |
| 2026-05-04 21:45 | 51.41677 | -0.35950 | 3646 ft | 259 kts | 168° |
| 2026-05-04 21:45 | 51.39909 | -0.36011 | 4291 ft | 261 kts | 197° |
| 2026-05-04 21:45 | 51.38258 | -0.37159 | 5075 ft | 256 kts | 209° |
| 2026-05-04 21:46 | 51.36651 | -0.38354 | 5718 ft | 260 kts | 207° |
| 2026-05-04 21:46 | 51.34987 | -0.39566 | 6021 ft | 265 kts | 208° |
| 2026-05-04 21:46 | 51.33317 | -0.40796 | 6042 ft | 263 kts | 208° |
| 2026-05-04 21:46 | 51.31651 | -0.42048 | 6043 ft | 266 kts | 210° |
| 2026-05-04 21:47 | 51.30025 | -0.43327 | 6045 ft | 266 kts | 209° |
| 2026-05-04 21:47 | 51.28369 | -0.44623 | 6041 ft | 264 kts | 209° |
| 2026-05-04 21:47 | 51.26709 | -0.45936 | 6049 ft | 274 kts | 210° |
| 2026-05-04 21:47 | 51.24936 | -0.47358 | 6039 ft | 288 kts | 210° |
| 2026-05-04 21:48 | 51.23169 | -0.48761 | 6048 ft | 282 kts | 209° |
| 2026-05-04 21:48 | 51.21306 | -0.50213 | 6561 ft | 306 kts | 209° |
| 2026-05-04 21:48 | 51.19446 | -0.51646 | 8024 ft | 298 kts | 210° |
| 2026-05-04 21:48 | 51.17660 | -0.53026 | 9543 ft | 285 kts | 211° |
| 2026-05-04 21:49 | 51.15922 | -0.54373 | 10771 ft | 281 kts | 211° |
| 2026-05-04 21:49 | 51.14162 | -0.55740 | 11665 ft | 290 kts | 211° |
| 2026-05-04 21:49 | 51.12352 | -0.57140 | 12604 ft | 295 kts | 211° |
| 2026-05-04 21:49 | 51.10527 | -0.58547 | 13586 ft | 298 kts | 211° |
| 2026-05-04 21:50 | 51.08655 | -0.59991 | 14584 ft | 301 kts | 212° |
| 2026-05-04 21:50 | 51.06735 | -0.61250 | 15523 ft | 310 kts | 201° |
| 2026-05-04 21:50 | 51.04535 | -0.61347 | 16392 ft | 332 kts | 176° |
| 2026-05-04 21:50 | 51.02362 | -0.59791 | 17216 ft | 356 kts | 154° |
| 2026-05-04 21:51 | 51.00374 | -0.57403 | 17941 ft | 362 kts | 151° |
| 2026-05-04 21:51 | 50.96224 | -0.52771 | 18023 ft | 362 kts | 154° |
| 2026-05-04 21:51 | 50.94163 | -0.50555 | 18026 ft | 361 kts | 154° |
| 2026-05-04 21:52 | 50.92060 | -0.48299 | 18021 ft | 362 kts | 154° |
| 2026-05-04 21:52 | 50.89972 | -0.46069 | 18020 ft | 362 kts | 154° |
| 2026-05-04 21:52 | 50.87897 | -0.43861 | 18020 ft | 363 kts | 154° |
| 2026-05-04 21:52 | 50.85778 | -0.41609 | 18020 ft | 363 kts | 154° |
| 2026-05-04 21:53 | 50.83705 | -0.39410 | 18020 ft | 362 kts | 154° |
| 2026-05-04 21:53 | 50.81594 | -0.37176 | 18020 ft | 362 kts | 154° |
| 2026-05-04 21:53 | 50.79521 | -0.34983 | 18020 ft | 362 kts | 154° |
| 2026-05-04 21:53 | 50.77402 | -0.32745 | 18020 ft | 362 kts | 154° |
| 2026-05-04 21:54 | 50.75328 | -0.30559 | 18020 ft | 362 kts | 154° |
| 2026-05-04 21:54 | 50.73222 | -0.28337 | 18020 ft | 363 kts | 153° |
| 2026-05-04 21:54 | 50.71217 | -0.25833 | 18019 ft | 370 kts | 143° |
| 2026-05-04 21:54 | 50.69570 | -0.22760 | 17998 ft | 361 kts | 123° |
| 2026-05-04 21:55 | 50.68419 | -0.19347 | 18000 ft | 345 kts | 115° |
| 2026-05-04 21:55 | 50.67404 | -0.15943 | 18002 ft | 344 kts | 116° |
| 2026-05-04 21:55 | 50.66339 | -0.12523 | 17999 ft | 348 kts | 116° |
| 2026-05-04 21:55 | 50.65274 | -0.09111 | 17999 ft | 349 kts | 116° |
| 2026-05-04 21:56 | 50.64223 | -0.05716 | 17999 ft | 348 kts | 116° |
| 2026-05-04 21:56 | 50.63155 | -0.02260 | 17999 ft | 348 kts | 116° |
| 2026-05-04 21:56 | 50.62104 | 0.01132 | 17999 ft | 348 kts | 116° |
| 2026-05-04 21:56 | 50.61034 | 0.04583 | 17999 ft | 348 kts | 116° |
| 2026-05-04 21:57 | 50.59981 | 0.07976 | 18000 ft | 348 kts | 116° |
| 2026-05-04 21:57 | 50.58913 | 0.11416 | 17999 ft | 348 kts | 116° |
| 2026-05-04 21:57 | 50.57847 | 0.14841 | 17999 ft | 348 kts | 116° |
| 2026-05-04 21:57 | 50.56785 | 0.18250 | 17999 ft | 348 kts | 116° |
| 2026-05-04 21:58 | 50.55713 | 0.21688 | 17999 ft | 348 kts | 116° |
| 2026-05-04 21:58 | 50.54657 | 0.25066 | 17999 ft | 348 kts | 116° |
| 2026-05-04 21:58 | 50.53590 | 0.28480 | 18000 ft | 348 kts | 116° |
| 2026-05-04 21:58 | 50.52515 | 0.31911 | 17999 ft | 348 kts | 116° |
| 2026-05-04 21:59 | 50.51444 | 0.35326 | 17999 ft | 348 kts | 116° |
| 2026-05-04 21:59 | 50.50375 | 0.38728 | 18000 ft | 348 kts | 116° |
| 2026-05-04 21:59 | 50.49301 | 0.42144 | 18000 ft | 348 kts | 116° |
| 2026-05-04 21:59 | 50.48208 | 0.45503 | 17999 ft | 348 kts | 119° |
| 2026-05-04 22:00 | 50.46934 | 0.48531 | 17999 ft | 348 kts | 127° |
| 2026-05-04 22:00 | 50.45264 | 0.51344 | 18000 ft | 348 kts | 138° |
| 2026-05-04 22:00 | 50.43411 | 0.53716 | 18000 ft | 348 kts | 141° |
| 2026-05-04 22:00 | 50.41511 | 0.56097 | 18000 ft | 348 kts | 140° |
| 2026-05-04 22:01 | 50.39640 | 0.58491 | 18000 ft | 348 kts | 140° |
| 2026-05-04 22:01 | 50.37772 | 0.60864 | 17999 ft | 348 kts | 141° |
| 2026-05-04 22:01 | 50.35874 | 0.63255 | 18000 ft | 348 kts | 141° |
| 2026-05-04 22:01 | 50.34002 | 0.65609 | 18000 ft | 348 kts | 141° |
| 2026-05-04 22:02 | 50.32109 | 0.67988 | 17999 ft | 348 kts | 141° |
| 2026-05-04 22:02 | 50.30242 | 0.70330 | 17999 ft | 348 kts | 141° |
| 2026-05-04 22:02 | 50.28340 | 0.72712 | 17999 ft | 348 kts | 141° |
| 2026-05-04 22:02 | 50.26459 | 0.75065 | 17999 ft | 348 kts | 141° |
| 2026-05-04 22:03 | 50.24574 | 0.77421 | 17999 ft | 348 kts | 141° |
| 2026-05-04 22:03 | 50.22693 | 0.79769 | 17999 ft | 348 kts | 141° |
| 2026-05-04 22:03 | 50.20801 | 0.82128 | 17999 ft | 348 kts | 141° |
| 2026-05-04 22:03 | 50.18910 | 0.84483 | 17999 ft | 348 kts | 141° |
| 2026-05-04 22:04 | 50.17007 | 0.86851 | 17999 ft | 348 kts | 141° |
| 2026-05-04 22:04 | 50.15138 | 0.89174 | 17999 ft | 348 kts | 141° |
| 2026-05-04 22:04 | 50.13247 | 0.91522 | 17999 ft | 348 kts | 141° |
| 2026-05-04 22:04 | 50.11358 | 0.93864 | 17999 ft | 348 kts | 141° |
| 2026-05-04 22:05 | 50.09448 | 0.96231 | 17999 ft | 348 kts | 141° |
| 2026-05-04 22:05 | 50.07563 | 0.98550 | 17999 ft | 348 kts | 142° |
| 2026-05-04 22:05 | 50.05569 | 1.00699 | 17999 ft | 348 kts | 149° |
| 2026-05-04 22:05 | 50.03431 | 1.02458 | 18000 ft | 348 kts | 154° |
| 2026-05-04 22:06 | 50.01287 | 1.04074 | 17999 ft | 348 kts | 154° |
| 2026-05-04 22:06 | 49.99098 | 1.05763 | 17999 ft | 348 kts | 153° |
| 2026-05-04 22:06 | 49.96958 | 1.07406 | 18000 ft | 348 kts | 154° |
| 2026-05-04 22:06 | 49.94778 | 1.09057 | 18000 ft | 348 kts | 154° |
| 2026-05-04 22:07 | 49.92608 | 1.10694 | 18000 ft | 348 kts | 154° |
| 2026-05-04 22:07 | 49.90444 | 1.12323 | 18000 ft | 348 kts | 154° |
| 2026-05-04 22:07 | 49.89009 | 1.13402 | 17999 ft | 348 kts | 154° |
| 2026-05-04 22:07 | 49.87489 | 1.14543 | 17999 ft | 348 kts | 154° |
| 2026-05-04 22:08 | 49.85328 | 1.16162 | 17999 ft | 348 kts | 154° |
| 2026-05-04 22:08 | 49.83142 | 1.17798 | 17999 ft | 348 kts | 154° |
| 2026-05-04 22:08 | 49.80960 | 1.19429 | 17999 ft | 348 kts | 154° |
| 2026-05-04 22:08 | 49.78798 | 1.21044 | 17999 ft | 347 kts | 154° |
| 2026-05-04 22:09 | 49.76614 | 1.22673 | 17999 ft | 347 kts | 154° |
| 2026-05-04 22:09 | 49.74459 | 1.24279 | 17999 ft | 347 kts | 154° |
| 2026-05-04 22:09 | 49.72298 | 1.25887 | 17999 ft | 347 kts | 154° |
| 2026-05-04 22:09 | 49.70139 | 1.27493 | 17999 ft | 347 kts | 154° |
| 2026-05-04 22:10 | 49.67951 | 1.29118 | 17999 ft | 347 kts | 154° |
| 2026-05-04 22:10 | 49.65808 | 1.30709 | 17999 ft | 347 kts | 154° |
| 2026-05-04 22:10 | 49.63614 | 1.32335 | 17999 ft | 347 kts | 154° |
| 2026-05-04 22:10 | 49.61469 | 1.33924 | 17999 ft | 347 kts | 154° |
| 2026-05-04 22:11 | 49.59288 | 1.35538 | 17999 ft | 347 kts | 154° |
| 2026-05-04 22:11 | 49.57135 | 1.37129 | 17999 ft | 347 kts | 154° |
| 2026-05-04 22:11 | 49.54972 | 1.38726 | 18000 ft | 347 kts | 154° |
| 2026-05-04 22:11 | 49.52748 | 1.40368 | 18002 ft | 360 kts | 154° |
| 2026-05-04 22:12 | 49.50480 | 1.42039 | 17905 ft | 362 kts | 154° |
| 2026-05-04 22:12 | 49.48238 | 1.43690 | 17467 ft | 358 kts | 154° |
| 2026-05-04 22:12 | 49.45984 | 1.45347 | 16931 ft | 358 kts | 154° |
| 2026-05-04 22:12 | 49.43767 | 1.46976 | 16380 ft | 358 kts | 154° |
| 2026-05-04 22:13 | 49.41533 | 1.48616 | 15821 ft | 357 kts | 154° |
| 2026-05-04 22:13 | 49.39296 | 1.50256 | 15258 ft | 357 kts | 154° |
| 2026-05-04 22:13 | 49.37050 | 1.51901 | 14691 ft | 357 kts | 154° |
| 2026-05-04 22:13 | 49.34837 | 1.53520 | 14130 ft | 357 kts | 154° |
| 2026-05-04 22:14 | 49.32672 | 1.55362 | 13558 ft | 356 kts | 143° |
| 2026-05-04 22:14 | 49.30972 | 1.58060 | 13050 ft | 353 kts | 122° |
| 2026-05-04 22:14 | 49.30005 | 1.61468 | 12734 ft | 344 kts | 105° |
| 2026-05-04 22:14 | 49.29636 | 1.65083 | 12244 ft | 342 kts | 94° |
| 2026-05-04 22:15 | 49.29504 | 1.68692 | 11713 ft | 342 kts | 94° |
| 2026-05-04 22:15 | 49.29330 | 1.72326 | 11173 ft | 341 kts | 97° |
| 2026-05-04 22:15 | 49.28699 | 1.75631 | 10956 ft | 330 kts | 118° |
| 2026-05-04 22:15 | 49.27348 | 1.78388 | 10625 ft | 324 kts | 135° |
| 2026-05-04 22:16 | 49.25709 | 1.80763 | 10216 ft | 321 kts | 137° |
| 2026-05-04 22:16 | 49.24115 | 1.83113 | 9855 ft | 316 kts | 136° |
| 2026-05-04 22:16 | 49.22552 | 1.85436 | 9436 ft | 314 kts | 136° |
| 2026-05-04 22:16 | 49.20978 | 1.87750 | 9033 ft | 312 kts | 136° |
| 2026-05-04 22:17 | 49.19424 | 1.90031 | 8637 ft | 309 kts | 136° |
| 2026-05-04 22:17 | 49.17891 | 1.92277 | 8246 ft | 307 kts | 136° |
| 2026-05-04 22:17 | 49.16346 | 1.94538 | 7853 ft | 304 kts | 136° |
| 2026-05-04 22:17 | 49.14848 | 1.96726 | 7463 ft | 290 kts | 136° |
| 2026-05-04 22:18 | 49.13438 | 1.98785 | 7108 ft | 275 kts | 136° |
| 2026-05-04 22:18 | 49.12085 | 2.00758 | 6763 ft | 262 kts | 136° |
| 2026-05-04 22:18 | 49.10789 | 2.02646 | 6435 ft | 253 kts | 136° |
| 2026-05-04 22:18 | 49.09513 | 2.04504 | 6193 ft | 255 kts | 136° |
| 2026-05-04 22:19 | 49.08245 | 2.06348 | 6020 ft | 247 kts | 136° |
| 2026-05-04 22:19 | 49.07017 | 2.08133 | 5829 ft | 241 kts | 136° |
| 2026-05-04 22:19 | 49.05819 | 2.09874 | 5616 ft | 236 kts | 136° |
| 2026-05-04 22:19 | 49.04628 | 2.11603 | 5353 ft | 233 kts | 136° |
| 2026-05-04 22:20 | 49.03465 | 2.13289 | 5090 ft | 231 kts | 136° |
| 2026-05-04 22:20 | 49.02345 | 2.14914 | 4852 ft | 228 kts | 136° |
| 2026-05-04 22:20 | 49.01276 | 2.16506 | 4627 ft | 225 kts | 130° |
| 2026-05-04 22:20 | 49.00626 | 2.18600 | 4408 ft | 217 kts | 95° |
| 2026-05-04 22:21 | 49.00805 | 2.20822 | 4223 ft | 209 kts | 78° |
| 2026-05-04 22:21 | 49.00936 | 2.22991 | 4042 ft | 201 kts | 89° |
| 2026-05-04 22:21 | 49.00979 | 2.24981 | 3905 ft | 194 kts | 86° |
| 2026-05-04 22:21 | 49.01079 | 2.27042 | 3688 ft | 192 kts | 85° |
| 2026-05-04 22:22 | 49.01183 | 2.28971 | 3449 ft | 189 kts | 85° |
| 2026-05-04 22:22 | 49.01294 | 2.30961 | 3192 ft | 187 kts | 85° |
| 2026-05-04 22:22 | 49.01398 | 2.32851 | 2970 ft | 181 kts | 85° |
| 2026-05-04 22:22 | 49.01503 | 2.34734 | 2697 ft | 176 kts | 85° |
| 2026-05-04 22:23 | 49.01603 | 2.36538 | 2465 ft | 164 kts | 85° |
| 2026-05-04 22:23 | 49.01692 | 2.38175 | 2230 ft | 149 kts | 85° |
| 2026-05-04 22:23 | 49.01778 | 2.39732 | 2102 ft | 147 kts | 85° |
| 2026-05-04 22:23 | 49.01859 | 2.41202 | 1859 ft | 144 kts | 85° |
| 2026-05-04 22:24 | 49.01940 | 2.42713 | 1657 ft | 143 kts | 84° |
| 2026-05-04 22:24 | 49.02019 | 2.44163 | 1470 ft | 142 kts | 85° |
| 2026-05-04 22:24 | 49.02100 | 2.45649 | 1283 ft | 142 kts | 85° |
| 2026-05-04 22:24 | 49.02182 | 2.47158 | 1112 ft | 140 kts | 85° |
| 2026-05-04 22:25 | 49.02238 | 2.48611 | 832 ft | 139 kts | 87° |
| 2026-05-04 22:25 | 49.02303 | 2.50050 | 719 ft | 134 kts | 83° |
| 2026-05-04 22:25 | 49.02415 | 2.51497 | 512 ft | 139 kts | 83° |
| 2026-05-04 22:25 | 49.02500 | 2.52915 | 381 ft | 130 kts | 86° |
| 2026-05-04 22:26 | 49.02553 | 2.53988 | 380 ft | 63 kts | 84° |
| 2026-05-04 22:26 | 49.02550 | 2.54535 | 379 ft | 45 kts | 105° |
| 2026-05-04 22:26 | 49.02489 | 2.54865 | 377 ft | 22 kts | 103° |
| 2026-05-04 22:26 | 49.02451 | 2.55075 | 377 ft | 17 kts | 105° |
| 2026-05-04 22:27 | 49.02445 | 2.55219 | 380 ft | 11 kts | 84° |
| 2026-05-04 22:27 | 49.02452 | 2.55329 | 380 ft | 9 kts | 84° |
| 2026-05-04 22:27 | 49.02457 | 2.55424 | 380 ft | 8 kts | 85° |
| 2026-05-04 22:27 | 49.02460 | 2.55523 | 380 ft | 10 kts | 94° |
| 2026-05-04 22:28 | 49.02439 | 2.55586 | 380 ft | 4 kts | 135° |
| 2026-05-04 22:28 | 49.02400 | 2.55613 | 380 ft | 2 kts | 172° |
| 2026-05-04 22:28 | 49.02397 | 2.55613 | 380 ft | 0 kts | 172° |
| 2026-05-04 22:28 | 49.02391 | 2.55615 | 380 ft | 0 kts | 172° |
| 2026-05-04 22:29 | 49.02381 | 2.55617 | 380 ft | 4 kts | 172° |
| 2026-05-04 22:29 | 49.02307 | 2.55627 | 380 ft | 16 kts | 175° |
| 2026-05-04 22:29 | 49.02187 | 2.55640 | 377 ft | 15 kts | 176° |
| 2026-05-04 22:29 | 49.02097 | 2.55638 | 375 ft | 11 kts | 201° |
| 2026-05-04 22:30 | 49.02063 | 2.55543 | 375 ft | 10 kts | 264° |
| 2026-05-04 22:30 | 49.02034 | 2.55465 | 374 ft | 8 kts | 209° |
| 2026-05-04 22:30 | 49.01971 | 2.55460 | 373 ft | 9 kts | 175° |
| 2026-05-04 22:30 | 49.01904 | 2.55468 | 372 ft | 9 kts | 175° |
| 2026-05-04 22:31 | 49.01852 | 2.55453 | 370 ft | 4 kts | 236° |
| 2026-05-04 22:31 | 49.01848 | 2.55426 | 370 ft | 8 kts | 266° |
| 2026-05-04 22:31 | 49.01862 | 2.55253 | 371 ft | 15 kts | 263° |
| 2026-05-04 22:31 | 49.01854 | 2.55149 | 371 ft | 8 kts | 263° |
| 2026-05-04 22:32 | 49.01849 | 2.55067 | 370 ft | 7 kts | 266° |
| 2026-05-04 22:32 | 49.01846 | 2.54979 | 370 ft | 10 kts | 266° |
| 2026-05-04 22:32 | 49.01842 | 2.54858 | 370 ft | 12 kts | 267° |
| 2026-05-04 22:32 | 49.01837 | 2.54703 | 368 ft | 17 kts | 266° |
| 2026-05-04 22:33 | 49.01826 | 2.54508 | 367 ft | 19 kts | 263° |
| 2026-05-04 22:33 | 49.01814 | 2.54302 | 367 ft | 20 kts | 264° |
| 2026-05-04 22:33 | 49.01797 | 2.54158 | 367 ft | 6 kts | 221° |
| 2026-05-04 22:33 | 49.01732 | 2.54108 | 366 ft | 4 kts | 204° |
| 2026-05-04 22:34 | 49.01713 | 2.54094 | 365 ft | 0 kts | 207° |
| 2026-05-04 22:34 | 49.01712 | 2.54093 | 365 ft | 0 kts | 207° |